createdAt,value
2023-05-09T00:00:06.541Z,31.42
2023-05-09T00:01:06.469Z,30.80
2023-05-09T00:02:06.607Z,33.67
2023-05-09T00:03:06.630Z,32.12
2023-05-09T00:04:06.596Z,31.70
2023-05-09T00:05:06.558Z,28.82
2023-05-09T00:06:06.594Z,30.12
2023-05-09T00:07:06.673Z,32.20
2023-05-09T00:08:06.729Z,31.36
2023-05-09T00:09:06.679Z,32.35
2023-05-09T00:10:06.763Z,33.02
2023-05-09T00:11:06.739Z,31.46
2023-05-09T00:12:06.756Z,31.93
2023-05-09T00:13:06.808Z,33.00
2023-05-09T00:14:06.808Z,29.57
2023-05-09T00:15:06.767Z,31.93
2023-05-09T00:16:06.861Z,35.09
2023-05-09T00:17:07.824Z,32.79
2023-05-09T00:18:06.952Z,34.19
2023-05-09T00:19:06.905Z,36.32
2023-05-09T00:20:06.964Z,32.53
2023-05-09T00:21:07.010Z,33.00
2023-05-09T00:22:07.068Z,34.77
2023-05-09T00:23:14.801Z,34.48
2023-05-09T00:24:07.026Z,32.56
2023-05-09T00:25:07.036Z,34.30
2023-05-09T00:26:07.126Z,33.32
2023-05-09T00:27:07.063Z,35.06
2023-05-09T00:28:07.022Z,33.44
2023-05-09T00:29:07.032Z,35.03
2023-05-09T00:30:07.033Z,34.41
2023-05-09T00:31:07.040Z,31.66
2023-05-09T00:32:07.046Z,32.87
2023-05-09T00:33:07.028Z,31.67
2023-05-09T00:34:06.988Z,31.98
2023-05-09T00:35:07.111Z,32.94
2023-05-09T00:36:06.975Z,32.31
2023-05-09T00:37:06.977Z,33.96
2023-05-09T00:38:06.982Z,32.24
2023-05-09T00:39:07.007Z,32.82
2023-05-09T00:40:07.026Z,33.46
2023-05-09T00:41:07.059Z,33.64
2023-05-09T00:42:07.148Z,30.08
2023-05-09T00:43:07.126Z,34.03
2023-05-09T00:44:07.134Z,32.09
2023-05-09T00:45:07.197Z,32.31
2023-05-09T00:46:07.206Z,32.48
2023-05-09T00:47:07.250Z,33.63
2023-05-09T00:48:07.299Z,33.48
2023-05-09T00:49:07.718Z,34.42
2023-05-09T00:50:07.360Z,34.30
2023-05-09T00:51:07.382Z,34.45
2023-05-09T00:52:07.382Z,33.02
2023-05-09T00:53:07.405Z,33.10
2023-05-09T00:54:09.188Z,34.30
2023-05-09T00:55:07.512Z,32.15
2023-05-09T00:56:07.519Z,30.75
2023-05-09T00:57:07.529Z,32.54
2023-05-09T00:58:07.647Z,32.37
2023-05-09T00:59:07.640Z,34.24
2023-05-09T01:00:07.648Z,32.48
2023-05-09T01:01:07.678Z,33.84
2023-05-09T01:02:07.660Z,33.86
2023-05-09T01:03:07.765Z,33.66
2023-05-09T01:04:07.720Z,31.80
2023-05-09T01:05:07.788Z,33.28
2023-05-09T01:06:07.786Z,33.07
2023-05-09T01:07:07.810Z,31.19
2023-05-09T01:08:07.868Z,30.61
2023-05-09T01:09:07.912Z,35.14
2023-05-09T01:10:07.925Z,31.72
2023-05-09T01:11:15.530Z,32.31
2023-05-09T01:12:07.936Z,34.01
2023-05-09T01:13:08.015Z,32.41
2023-05-09T01:14:07.992Z,33.56
2023-05-09T01:15:07.909Z,33.24
2023-05-09T01:16:07.969Z,32.15
2023-05-09T01:17:07.889Z,33.34
2023-05-09T01:18:08.000Z,33.90
2023-05-09T01:19:07.863Z,34.72
2023-05-09T01:20:07.884Z,33.59
2023-05-09T01:21:07.869Z,32.69
2023-05-09T01:22:07.852Z,32.86
2023-05-09T01:23:08.158Z,34.91
2023-05-09T01:24:07.848Z,32.38
2023-05-09T01:25:07.806Z,33.16
2023-05-09T01:26:07.817Z,31.34
2023-05-09T01:27:07.840Z,34.59
2023-05-09T01:28:07.826Z,35.01
2023-05-09T01:29:07.793Z,35.85
2023-05-09T01:30:07.883Z,33.24
2023-05-09T01:31:07.893Z,33.68
2023-05-09T01:32:07.793Z,35.77
2023-05-09T01:33:07.817Z,35.51
2023-05-09T01:34:07.767Z,33.46
2023-05-09T01:35:07.855Z,34.50
2023-05-09T01:36:07.839Z,32.82
2023-05-09T01:37:07.896Z,33.86
2023-05-09T01:38:07.890Z,34.00
2023-05-09T01:39:07.947Z,33.74
2023-05-09T01:40:07.950Z,34.26
2023-05-09T01:41:08.027Z,32.99
2023-05-09T01:42:08.027Z,32.92
2023-05-09T01:43:08.031Z,34.53
2023-05-09T01:44:08.123Z,35.97
2023-05-09T01:45:08.100Z,34.73
2023-05-09T01:46:08.195Z,35.63
2023-05-09T01:47:08.115Z,37.10
2023-05-09T01:48:08.218Z,35.48
2023-05-09T01:49:08.188Z,34.64
2023-05-09T01:50:08.248Z,35.52
2023-05-09T01:51:08.292Z,32.75
2023-05-09T01:52:08.335Z,34.82
2023-05-09T01:53:08.322Z,35.68
2023-05-09T01:54:08.330Z,33.97
2023-05-09T01:55:08.354Z,35.58
2023-05-09T01:56:08.426Z,36.25
2023-05-09T01:57:08.489Z,35.26
2023-05-09T01:58:08.521Z,36.98
2023-05-09T01:59:08.517Z,33.68
2023-05-09T02:00:08.491Z,33.85
2023-05-09T02:01:08.639Z,38.16
2023-05-09T02:02:08.675Z,34.65
2023-05-09T02:03:08.666Z,37.29
2023-05-09T02:04:08.599Z,36.93
2023-05-09T02:05:08.671Z,36.24
2023-05-09T02:06:08.770Z,34.61
2023-05-09T02:07:08.760Z,36.65
2023-05-09T02:08:08.839Z,36.12
2023-05-09T02:09:08.780Z,35.75
2023-05-09T02:10:08.881Z,35.71
2023-05-09T02:11:08.884Z,38.65
2023-05-09T02:12:08.972Z,36.74
2023-05-09T02:13:09.052Z,35.88
2023-05-09T02:14:08.987Z,36.03
2023-05-09T02:15:09.014Z,36.45
2023-05-09T02:16:09.126Z,36.42
2023-05-09T02:17:09.081Z,35.67
2023-05-09T02:18:09.212Z,38.01
2023-05-09T02:19:09.127Z,34.80
2023-05-09T02:20:09.156Z,36.08
2023-05-09T02:21:09.252Z,36.36
2023-05-09T02:22:09.220Z,39.08
2023-05-09T02:23:09.279Z,35.38
2023-05-09T02:24:09.297Z,35.19
2023-05-09T02:25:09.298Z,35.99
2023-05-09T02:26:09.350Z,37.20
2023-05-09T02:27:09.351Z,36.10
2023-05-09T02:28:09.358Z,36.38
2023-05-09T02:29:09.430Z,37.77
2023-05-09T02:30:09.382Z,33.97
2023-05-09T02:31:09.400Z,36.61
2023-05-09T02:32:09.597Z,35.55
2023-05-09T02:33:09.479Z,35.82
2023-05-09T02:34:09.515Z,35.14
2023-05-09T02:35:09.503Z,36.15
2023-05-09T02:36:09.484Z,36.76
2023-05-09T02:37:09.539Z,36.05
2023-05-09T02:38:09.581Z,37.01
2023-05-09T02:39:09.605Z,37.37
2023-05-09T02:40:09.655Z,35.96
2023-05-09T02:41:09.669Z,36.76
2023-05-09T02:42:09.693Z,34.81
2023-05-09T02:43:09.771Z,36.76
2023-05-09T02:44:09.739Z,36.46
2023-05-09T02:45:09.783Z,34.86
2023-05-09T02:46:09.848Z,34.89
2023-05-09T02:47:09.808Z,36.20
2023-05-09T02:48:09.939Z,32.30
2023-05-09T02:49:10.199Z,34.99
2023-05-09T02:50:09.899Z,33.81
2023-05-09T02:51:09.844Z,34.44
2023-05-09T02:52:09.798Z,35.92
2023-05-09T02:53:09.820Z,35.82
2023-05-09T02:54:09.813Z,35.15
2023-05-09T02:55:09.748Z,37.81
2023-05-09T02:56:09.766Z,37.89
2023-05-09T02:57:09.783Z,37.57
2023-05-09T02:58:14.218Z,35.79
2023-05-09T02:59:10.762Z,35.58
2023-05-09T03:00:09.777Z,38.01
2023-05-09T03:01:09.791Z,33.44
2023-05-09T03:02:09.738Z,36.20
2023-05-09T03:03:09.802Z,35.46
2023-05-09T03:04:09.724Z,35.49
2023-05-09T03:05:09.728Z,33.46
2023-05-09T03:06:09.790Z,32.31
2023-05-09T03:07:09.676Z,35.23
2023-05-09T03:08:09.704Z,36.63
2023-05-09T03:09:09.721Z,34.58
2023-05-09T03:10:09.662Z,33.42
2023-05-09T03:11:09.654Z,34.45
2023-05-09T03:12:09.662Z,37.39
2023-05-09T03:13:09.695Z,35.01
2023-05-09T03:14:09.679Z,32.89
2023-05-09T03:15:09.702Z,32.99
2023-05-09T03:16:09.781Z,34.94
2023-05-09T03:17:09.707Z,31.77
2023-05-09T03:18:09.756Z,35.08
2023-05-09T03:19:09.829Z,34.50
2023-05-09T03:20:09.837Z,37.11
2023-05-09T03:21:09.886Z,31.81
2023-05-09T03:22:09.968Z,33.44
2023-05-09T03:23:09.951Z,34.90
2023-05-09T03:24:09.963Z,34.24
2023-05-09T03:25:10.018Z,35.44
2023-05-09T03:26:10.045Z,33.29
2023-05-09T03:27:10.070Z,32.43
2023-05-09T03:28:10.088Z,33.80
2023-05-09T03:29:10.188Z,33.94
2023-05-09T03:30:10.269Z,33.78
2023-05-09T03:31:10.312Z,34.71
2023-05-09T03:32:10.319Z,34.21
2023-05-09T03:33:10.377Z,35.29
2023-05-09T03:34:10.378Z,33.42
2023-05-09T03:35:10.420Z,35.72
2023-05-09T03:36:10.473Z,32.51
2023-05-09T03:37:10.444Z,37.35
2023-05-09T03:38:10.506Z,35.62
2023-05-09T03:39:10.481Z,33.40
2023-05-09T03:40:10.530Z,32.19
2023-05-09T03:41:10.588Z,32.27
2023-05-09T03:42:10.589Z,35.62
2023-05-09T03:43:10.597Z,34.15
2023-05-09T03:44:10.663Z,33.64
2023-05-09T03:45:10.719Z,33.52
2023-05-09T03:46:10.722Z,33.37
2023-05-09T03:47:10.731Z,33.87
2023-05-09T03:48:10.821Z,36.61
2023-05-09T03:49:10.856Z,34.54
2023-05-09T03:50:10.884Z,33.77
2023-05-09T03:51:10.910Z,34.86
2023-05-09T03:52:10.918Z,32.20
2023-05-09T03:53:10.948Z,35.55
2023-05-09T03:54:11.056Z,35.00
2023-05-09T03:55:11.028Z,35.44
2023-05-09T03:56:10.949Z,33.20
2023-05-09T03:57:11.012Z,33.02
2023-05-09T03:58:11.008Z,37.20
2023-05-09T03:59:11.081Z,37.16
2023-05-09T04:00:11.151Z,37.46
2023-05-09T04:01:11.127Z,36.77
2023-05-09T04:02:11.213Z,35.69
2023-05-09T04:03:11.291Z,37.80
2023-05-09T04:04:11.337Z,37.83
2023-05-09T04:05:11.272Z,35.89
2023-05-09T04:06:11.322Z,37.14
2023-05-09T04:07:11.374Z,36.75
2023-05-09T04:08:11.332Z,38.44
2023-05-09T04:09:11.395Z,35.40
2023-05-09T04:10:11.409Z,37.84
2023-05-09T04:11:11.356Z,35.61
2023-05-09T04:12:11.419Z,37.08
2023-05-09T04:13:11.519Z,36.41
2023-05-09T04:14:11.475Z,37.37
2023-05-09T04:15:11.582Z,39.10
2023-05-09T04:16:11.534Z,38.12
2023-05-09T04:17:11.576Z,40.49
2023-05-09T04:18:11.607Z,37.76
2023-05-09T04:19:11.619Z,37.85
2023-05-09T04:20:11.642Z,39.19
2023-05-09T04:21:11.631Z,38.14
2023-05-09T04:22:11.631Z,37.76
2023-05-09T04:23:11.686Z,36.91
2023-05-09T04:24:11.767Z,39.31
2023-05-09T04:25:11.771Z,38.53
2023-05-09T04:26:13.154Z,42.03
2023-05-09T04:27:11.809Z,39.74
2023-05-09T04:28:11.841Z,36.84
2023-05-09T04:29:11.886Z,37.56
2023-05-09T04:30:11.947Z,38.98
2023-05-09T04:31:11.948Z,38.01
2023-05-09T04:32:12.054Z,39.57
2023-05-09T04:33:11.955Z,37.69
2023-05-09T04:34:12.056Z,35.97
2023-05-09T04:35:12.193Z,38.28
2023-05-09T04:36:12.086Z,38.19
2023-05-09T04:37:12.133Z,36.43
2023-05-09T04:38:12.135Z,35.84
2023-05-09T04:39:12.213Z,36.42
2023-05-09T04:40:12.213Z,36.56
2023-05-09T04:41:12.268Z,38.76
2023-05-09T04:42:12.351Z,37.85
2023-05-09T04:43:12.282Z,37.43
2023-05-09T04:44:12.377Z,39.36
2023-05-09T04:45:12.456Z,36.90
2023-05-09T04:46:12.413Z,36.49
2023-05-09T04:47:12.409Z,39.19
2023-05-09T04:48:12.463Z,40.64
2023-05-09T04:49:12.519Z,35.52
2023-05-09T04:50:12.533Z,35.32
2023-05-09T04:51:12.512Z,37.67
2023-05-09T04:52:12.521Z,36.75
2023-05-09T04:53:12.555Z,36.93
2023-05-09T04:54:12.609Z,34.28
2023-05-09T04:55:12.701Z,32.96
2023-05-09T04:56:12.688Z,35.67
2023-05-09T04:57:17.781Z,35.25
2023-05-09T04:58:13.806Z,35.83
2023-05-09T04:59:12.706Z,36.50
2023-05-09T05:00:12.721Z,37.48
2023-05-09T05:01:12.745Z,37.60
2023-05-09T05:02:12.687Z,35.18
2023-05-09T05:03:12.688Z,34.49
2023-05-09T05:04:12.798Z,36.65
2023-05-09T05:05:12.851Z,35.89
2023-05-09T05:06:12.652Z,35.68
2023-05-09T05:07:12.705Z,35.14
2023-05-09T05:08:12.653Z,33.63
2023-05-09T05:09:12.674Z,34.51
2023-05-09T05:10:12.670Z,35.20
2023-05-09T05:11:12.639Z,37.74
2023-05-09T05:12:12.722Z,34.44
2023-05-09T05:13:12.747Z,35.54
2023-05-09T05:14:12.878Z,35.73
2023-05-09T05:15:12.870Z,35.54
2023-05-09T05:16:12.862Z,34.01
2023-05-09T05:17:12.776Z,34.30
2023-05-09T05:18:12.817Z,34.18
2023-05-09T05:19:12.823Z,33.84
2023-05-09T05:20:12.878Z,32.45
2023-05-09T05:21:12.859Z,33.47
2023-05-09T05:22:12.848Z,33.27
2023-05-09T05:23:12.926Z,34.58
2023-05-09T05:24:12.982Z,33.34
2023-05-09T05:25:13.308Z,33.02
2023-05-09T05:26:13.027Z,33.54
2023-05-09T05:27:13.961Z,30.18
2023-05-09T05:28:13.057Z,30.55
2023-05-09T05:29:13.113Z,30.81
2023-05-09T05:30:13.151Z,31.38
2023-05-09T05:31:13.236Z,31.78
2023-05-09T05:32:13.188Z,32.79
2023-05-09T05:33:13.232Z,32.66
2023-05-09T05:34:13.280Z,28.22
2023-05-09T05:35:13.415Z,26.71
2023-05-09T05:36:13.335Z,29.27
2023-05-09T05:37:13.330Z,28.37
2023-05-09T05:38:13.276Z,28.75
2023-05-09T05:39:13.377Z,30.27
2023-05-09T05:40:13.363Z,31.83
2023-05-09T05:41:13.387Z,28.32
2023-05-09T05:42:13.355Z,30.06
2023-05-09T05:43:13.440Z,29.71
2023-05-09T05:44:13.917Z,29.24
2023-05-09T05:45:13.574Z,32.92
2023-05-09T05:46:13.703Z,31.76
2023-05-09T05:47:13.543Z,30.31
2023-05-09T05:48:13.627Z,29.81
2023-05-09T05:49:13.905Z,31.02
2023-05-09T05:50:13.707Z,29.45
2023-05-09T05:51:13.724Z,29.89
2023-05-09T05:52:13.668Z,29.77
2023-05-09T05:53:13.732Z,29.27
2023-05-09T05:54:13.913Z,29.69
2023-05-09T05:55:13.916Z,30.80
2023-05-09T05:56:13.874Z,28.27
2023-05-09T05:57:14.110Z,28.17
2023-05-09T05:58:14.018Z,27.71
2023-05-09T05:59:14.009Z,27.78
2023-05-09T06:00:14.060Z,28.43
2023-05-09T06:01:14.089Z,28.37
2023-05-09T06:02:14.184Z,26.36
2023-05-09T06:03:14.263Z,25.44
2023-05-09T06:04:14.192Z,24.89
2023-05-09T06:05:14.360Z,24.44
2023-05-09T06:06:14.256Z,27.46
2023-05-09T06:07:14.232Z,23.72
2023-05-09T06:08:14.290Z,24.38
2023-05-09T06:09:14.404Z,24.05
2023-05-09T06:10:14.391Z,24.74
2023-05-09T06:11:14.381Z,23.29
2023-05-09T06:12:14.428Z,24.70
2023-05-09T06:13:14.482Z,23.25
2023-05-09T06:14:14.918Z,24.04
2023-05-09T06:15:14.683Z,24.35
2023-05-09T06:16:20.037Z,22.51
2023-05-09T06:17:15.569Z,23.76
2023-05-09T06:18:14.554Z,22.57
2023-05-09T06:19:14.496Z,20.58
2023-05-09T06:20:14.471Z,21.53
2023-05-09T06:21:14.526Z,22.53
2023-05-09T06:22:14.468Z,21.34
2023-05-09T06:23:14.457Z,21.32
2023-05-09T06:24:27.574Z,22.51
2023-05-09T06:25:15.560Z,24.44
2023-05-09T06:26:14.403Z,24.26
2023-05-09T06:27:14.409Z,20.33
2023-05-09T06:28:14.459Z,20.62
2023-05-09T06:29:14.432Z,22.11
2023-05-09T06:30:25.591Z,21.26
2023-05-09T06:31:15.453Z,23.50
2023-05-09T06:32:14.469Z,24.62
2023-05-09T06:33:14.361Z,22.88
2023-05-09T06:34:14.375Z,21.45
2023-05-09T06:35:14.600Z,22.93
2023-05-09T06:36:14.328Z,21.40
2023-05-09T06:37:14.351Z,22.79
2023-05-09T06:38:14.376Z,21.50
2023-05-09T06:39:14.357Z,22.82
2023-05-09T06:40:14.369Z,22.02
2023-05-09T06:41:14.330Z,21.90
2023-05-09T06:42:14.324Z,20.01
2023-05-09T06:43:14.423Z,20.46
2023-05-09T06:44:14.347Z,21.44
2023-05-09T06:45:14.698Z,21.15
2023-05-09T06:46:14.497Z,20.93
2023-05-09T06:47:14.465Z,20.23
2023-05-09T06:48:14.536Z,21.39
2023-05-09T06:49:14.968Z,21.25
2023-05-09T06:50:14.557Z,18.33
2023-05-09T06:51:14.532Z,19.19
2023-05-09T06:52:14.556Z,21.26
2023-05-09T06:53:14.591Z,22.39
2023-05-09T06:54:14.589Z,21.49
2023-05-09T06:55:14.879Z,20.99
2023-05-09T06:56:15.559Z,20.96
2023-05-09T06:57:14.596Z,20.25
2023-05-09T06:58:14.529Z,21.55
2023-05-09T06:59:14.554Z,20.37
2023-05-09T07:00:14.558Z,19.22
2023-05-09T07:01:14.550Z,20.94
2023-05-09T07:02:14.566Z,20.09
2023-05-09T07:03:14.544Z,20.58
2023-05-09T07:04:14.534Z,19.28
2023-05-09T07:05:14.818Z,20.69
2023-05-09T07:06:14.648Z,18.62
2023-05-09T07:07:14.511Z,20.54
2023-05-09T07:08:14.533Z,19.97
2023-05-09T07:09:14.572Z,20.49
2023-05-09T07:10:14.518Z,19.27
2023-05-09T07:11:14.488Z,19.26
2023-05-09T07:12:14.559Z,18.97
2023-05-09T07:13:14.592Z,18.79
2023-05-09T07:14:14.631Z,18.58
2023-05-09T07:15:18.548Z,17.35
2023-05-09T07:16:15.667Z,20.29
2023-05-09T07:17:22.844Z,19.25
2023-05-09T07:18:15.658Z,20.79
2023-05-09T07:19:14.627Z,19.00
2023-05-09T07:20:14.652Z,19.68
2023-05-09T07:21:14.560Z,18.38
2023-05-09T07:22:14.679Z,18.01
2023-05-09T07:23:14.567Z,16.88
2023-05-09T07:24:14.590Z,18.69
2023-05-09T07:25:14.866Z,17.23
2023-05-09T07:26:14.591Z,18.44
2023-05-09T07:27:14.614Z,18.54
2023-05-09T07:28:14.535Z,19.48
2023-05-09T07:29:14.519Z,18.18
2023-05-09T07:30:14.693Z,17.55
2023-05-09T07:31:14.572Z,17.29
2023-05-09T07:32:14.529Z,17.93
2023-05-09T07:33:14.606Z,16.63
2023-05-09T07:34:15.045Z,17.33
2023-05-09T07:35:14.750Z,18.23
2023-05-09T07:36:14.572Z,17.01
2023-05-09T07:37:16.338Z,17.28
2023-05-09T07:38:14.698Z,16.95
2023-05-09T07:39:15.249Z,17.59
2023-05-09T07:40:14.997Z,17.02
2023-05-09T07:41:14.786Z,16.87
2023-05-09T07:42:14.886Z,16.94
2023-05-09T07:43:14.859Z,16.64
2023-05-09T07:44:15.005Z,16.46
2023-05-09T07:45:15.022Z,17.51
2023-05-09T07:46:15.030Z,18.70
2023-05-09T07:47:14.904Z,17.86
2023-05-09T07:48:15.250Z,16.89
2023-05-09T07:49:15.044Z,17.19
2023-05-09T07:50:15.948Z,17.86
2023-05-09T07:51:15.073Z,16.80
2023-05-09T07:52:15.126Z,15.68
2023-05-09T07:53:15.147Z,17.13
2023-05-09T07:54:15.280Z,17.55
2023-05-09T07:55:15.319Z,18.33
2023-05-09T07:56:15.234Z,18.77
2023-05-09T07:57:15.335Z,18.63
2023-05-09T07:58:15.321Z,17.48
2023-05-09T07:59:15.376Z,17.23
2023-05-09T08:00:15.398Z,17.96
2023-05-09T08:01:15.457Z,17.00
2023-05-09T08:02:15.509Z,17.10
2023-05-09T08:03:15.730Z,17.78
2023-05-09T08:04:15.609Z,17.72
2023-05-09T08:05:15.776Z,19.52
2023-05-09T08:06:15.685Z,18.22
2023-05-09T08:07:15.630Z,16.61
2023-05-09T08:08:15.697Z,16.28
2023-05-09T08:09:15.809Z,17.06
2023-05-09T08:10:15.929Z,16.32
2023-05-09T08:11:15.813Z,17.06
2023-05-09T08:12:15.845Z,15.23
2023-05-09T08:13:15.926Z,14.43
2023-05-09T08:14:16.444Z,16.27
2023-05-09T08:15:16.100Z,15.00
2023-05-09T08:16:15.960Z,14.38
2023-05-09T08:17:15.915Z,15.58
2023-05-09T08:18:15.928Z,13.62
2023-05-09T08:19:16.447Z,15.06
2023-05-09T08:20:16.082Z,15.22
2023-05-09T08:21:16.051Z,14.12
2023-05-09T08:22:16.099Z,15.27
2023-05-09T08:23:16.129Z,14.27
2023-05-09T08:24:16.173Z,14.33
2023-05-09T08:25:16.511Z,13.45
2023-05-09T08:26:16.309Z,14.30
2023-05-09T08:27:16.297Z,14.32
2023-05-09T08:28:16.229Z,13.93
2023-05-09T08:29:16.456Z,13.48
2023-05-09T08:30:16.320Z,12.85
2023-05-09T08:31:16.345Z,12.83
2023-05-09T08:32:16.363Z,12.83
